sensor_id;sensor_type;location;lat;lon;timestamp;P1;durP1;ratioP1;P2;durP2;ratioP2
25207;SDS011;13153;52.316;21.166;2023-08-31T00:02:17;10.27;;;8.95;;
25207;SDS011;13153;52.316;21.166;2023-08-31T00:04:44;11.18;;;8.45;;
25207;SDS011;13153;52.316;21.166;2023-08-31T00:07:10;10.43;;;9.10;;
25207;SDS011;13153;52.316;21.166;2023-08-31T00:09:35;10.35;;;8.30;;
25207;SDS011;13153;52.316;21.166;2023-08-31T00:12:02;10.23;;;8.48;;
25207;SDS011;13153;52.316;21.166;2023-08-31T00:14:28;9.82;;;8.27;;
25207;SDS011;13153;52.316;21.166;2023-08-31T00:16:54;8.90;;;8.00;;
25207;SDS011;13153;52.316;21.166;2023-08-31T00:19:22;9.20;;;8.27;;
25207;SDS011;13153;52.316;21.166;2023-08-31T00:21:48;12.27;;;7.68;;
25207;SDS011;13153;52.316;21.166;2023-08-31T00:24:14;9.85;;;7.47;;
25207;SDS011;13153;52.316;21.166;2023-08-31T00:26:40;12.25;;;8.30;;
25207;SDS011;13153;52.316;21.166;2023-08-31T00:29:08;9.07;;;7.70;;
25207;SDS011;13153;52.316;21.166;2023-08-31T00:31:36;8.63;;;7.70;;
25207;SDS011;13153;52.316;21.166;2023-08-31T00:34:02;10.50;;;8.25;;
25207;SDS011;13153;52.316;21.166;2023-08-31T00:36:32;16.65;;;12.68;;
25207;SDS011;13153;52.316;21.166;2023-08-31T00:38:58;12.43;;;10.48;;
25207;SDS011;13153;52.316;21.166;2023-08-31T00:41:31;9.20;;;7.47;;
25207;SDS011;13153;52.316;21.166;2023-08-31T00:43:57;7.78;;;7.00;;
25207;SDS011;13153;52.316;21.166;2023-08-31T00:46:23;7.90;;;6.70;;
25207;SDS011;13153;52.316;21.166;2023-08-31T00:48:52;9.05;;;7.38;;
25207;SDS011;13153;52.316;21.166;2023-08-31T00:51:19;8.85;;;6.72;;
25207;SDS011;13153;52.316;21.166;2023-08-31T00:53:46;8.18;;;6.55;;
25207;SDS011;13153;52.316;21.166;2023-08-31T00:56:13;8.63;;;6.22;;
25207;SDS011;13153;52.316;21.166;2023-08-31T00:58:39;7.20;;;6.45;;
25207;SDS011;13153;52.316;21.166;2023-08-31T01:12:36;8.55;;;5.80;;
25207;SDS011;13153;52.316;21.166;2023-08-31T01:15:20;8.90;;;5.53;;
25207;SDS011;13153;52.316;21.166;2023-08-31T01:17:47;5.95;;;5.35;;
25207;SDS011;13153;52.316;21.166;2023-08-31T01:20:19;6.38;;;5.55;;
25207;SDS011;13153;52.316;21.166;2023-08-31T01:22:56;5.90;;;5.30;;
25207;SDS011;13153;52.316;21.166;2023-08-31T01:25:31;6.95;;;5.07;;
25207;SDS011;13153;52.316;21.166;2023-08-31T01:27:58;5.97;;;5.38;;
25207;SDS011;13153;52.316;21.166;2023-08-31T01:30:25;6.35;;;5.38;;
25207;SDS011;13153;52.316;21.166;2023-08-31T01:32:55;5.28;;;4.78;;
25207;SDS011;13153;52.316;21.166;2023-08-31T01:35:20;7.28;;;5.40;;
25207;SDS011;13153;52.316;21.166;2023-08-31T01:37:50;8.73;;;5.32;;
25207;SDS011;13153;52.316;21.166;2023-08-31T01:43:21;5.75;;;4.90;;
25207;SDS011;13153;52.316;21.166;2023-08-31T01:45:48;5.82;;;5.10;;
25207;SDS011;13153;52.316;21.166;2023-08-31T01:48:14;5.80;;;4.70;;
25207;SDS011;13153;52.316;21.166;2023-08-31T01:50:40;5.45;;;4.95;;
25207;SDS011;13153;52.316;21.166;2023-08-31T01:53:06;6.70;;;5.00;;
25207;SDS011;13153;52.316;21.166;2023-08-31T01:55:32;7.07;;;4.95;;
25207;SDS011;13153;52.316;21.166;2023-08-31T01:57:58;6.43;;;4.60;;
25207;SDS011;13153;52.316;21.166;2023-08-31T02:00:24;7.25;;;5.50;;
25207;SDS011;13153;52.316;21.166;2023-08-31T02:02:51;5.50;;;4.75;;
25207;SDS011;13153;52.316;21.166;2023-08-31T02:05:17;5.95;;;5.07;;
25207;SDS011;13153;52.316;21.166;2023-08-31T02:07:43;5.45;;;4.53;;
25207;SDS011;13153;52.316;21.166;2023-08-31T02:10:09;6.43;;;4.43;;
25207;SDS011;13153;52.316;21.166;2023-08-31T02:12:35;5.88;;;5.28;;
25207;SDS011;13153;52.316;21.166;2023-08-31T02:15:03;5.30;;;4.80;;
25207;SDS011;13153;52.316;21.166;2023-08-31T02:17:30;5.57;;;4.53;;
25207;SDS011;13153;52.316;21.166;2023-08-31T02:19:56;5.25;;;4.45;;
25207;SDS011;13153;52.316;21.166;2023-08-31T02:22:22;6.07;;;4.40;;
25207;SDS011;13153;52.316;21.166;2023-08-31T02:24:48;8.02;;;4.30;;
25207;SDS011;13153;52.316;21.166;2023-08-31T02:27:14;6.18;;;4.65;;
25207;SDS011;13153;52.316;21.166;2023-08-31T02:29:40;5.25;;;4.30;;
25207;SDS011;13153;52.316;21.166;2023-08-31T02:32:06;7.32;;;4.70;;
25207;SDS011;13153;52.316;21.166;2023-08-31T02:34:32;6.13;;;4.95;;
25207;SDS011;13153;52.316;21.166;2023-08-31T02:36:58;8.00;;;4.45;;
25207;SDS011;13153;52.316;21.166;2023-08-31T02:39:24;4.85;;;4.43;;
25207;SDS011;13153;52.316;21.166;2023-08-31T02:41:49;5.38;;;4.45;;
25207;SDS011;13153;52.316;21.166;2023-08-31T02:44:15;5.60;;;4.38;;
25207;SDS011;13153;52.316;21.166;2023-08-31T02:46:41;6.68;;;5.00;;
25207;SDS011;13153;52.316;21.166;2023-08-31T02:49:07;6.57;;;4.88;;
25207;SDS011;13153;52.316;21.166;2023-08-31T02:51:32;8.50;;;4.60;;
25207;SDS011;13153;52.316;21.166;2023-08-31T02:53:58;6.50;;;4.50;;
25207;SDS011;13153;52.316;21.166;2023-08-31T02:56:24;6.93;;;4.18;;
25207;SDS011;13153;52.316;21.166;2023-08-31T02:58:50;4.97;;;4.38;;
25207;SDS011;13153;52.316;21.166;2023-08-31T03:01:16;4.82;;;4.32;;
25207;SDS011;13153;52.316;21.166;2023-08-31T03:03:42;5.70;;;4.47;;
25207;SDS011;13153;52.316;21.166;2023-08-31T03:06:09;6.30;;;4.18;;
25207;SDS011;13153;52.316;21.166;2023-08-31T03:08:35;6.28;;;4.50;;
25207;SDS011;13153;52.316;21.166;2023-08-31T03:11:02;5.50;;;4.20;;
25207;SDS011;13153;52.316;21.166;2023-08-31T03:13:32;5.28;;;4.20;;
25207;SDS011;13153;52.316;21.166;2023-08-31T03:15:59;5.05;;;3.90;;
25207;SDS011;13153;52.316;21.166;2023-08-31T03:18:25;4.55;;;4.15;;
25207;SDS011;13153;52.316;21.166;2023-08-31T03:20:52;5.30;;;4.20;;
25207;SDS011;13153;52.316;21.166;2023-08-31T03:23:19;8.25;;;4.40;;
25207;SDS011;13153;52.316;21.166;2023-08-31T03:25:45;6.95;;;4.40;;
25207;SDS011;13153;52.316;21.166;2023-08-31T03:28:11;6.78;;;4.53;;
25207;SDS011;13153;52.316;21.166;2023-08-31T03:30:38;6.22;;;4.00;;
25207;SDS011;13153;52.316;21.166;2023-08-31T03:33:04;4.25;;;3.85;;
25207;SDS011;13153;52.316;21.166;2023-08-31T03:35:31;9.98;;;4.47;;
25207;SDS011;13153;52.316;21.166;2023-08-31T03:37:57;5.60;;;4.05;;
25207;SDS011;13153;52.316;21.166;2023-08-31T03:40:23;5.50;;;4.20;;
25207;SDS011;13153;52.316;21.166;2023-08-31T03:42:49;6.05;;;4.10;;
25207;SDS011;13153;52.316;21.166;2023-08-31T03:45:15;6.70;;;4.15;;
25207;SDS011;13153;52.316;21.166;2023-08-31T03:47:41;5.47;;;3.75;;
25207;SDS011;13153;52.316;21.166;2023-08-31T03:50:07;4.78;;;3.55;;
25207;SDS011;13153;52.316;21.166;2023-08-31T03:52:36;3.65;;;3.28;;
25207;SDS011;13153;52.316;21.166;2023-08-31T03:55:02;4.53;;;3.50;;
25207;SDS011;13153;52.316;21.166;2023-08-31T03:57:28;7.72;;;3.50;;
25207;SDS011;13153;52.316;21.166;2023-08-31T03:59:54;6.28;;;3.60;;
25207;SDS011;13153;52.316;21.166;2023-08-31T04:02:19;3.60;;;3.17;;
25207;SDS011;13153;52.316;21.166;2023-08-31T04:04:45;5.75;;;3.17;;
25207;SDS011;13153;52.316;21.166;2023-08-31T04:07:11;3.65;;;3.30;;
25207;SDS011;13153;52.316;21.166;2023-08-31T04:09:36;4.22;;;3.30;;
25207;SDS011;13153;52.316;21.166;2023-08-31T04:12:02;5.93;;;4.15;;
25207;SDS011;13153;52.316;21.166;2023-08-31T04:14:29;9.25;;;6.72;;
25207;SDS011;13153;52.316;21.166;2023-08-31T04:16:55;5.72;;;5.10;;
25207;SDS011;13153;52.316;21.166;2023-08-31T04:19:21;8.45;;;6.13;;
25207;SDS011;13153;52.316;21.166;2023-08-31T04:21:47;7.25;;;5.60;;
25207;SDS011;13153;52.316;21.166;2023-08-31T04:24:13;7.10;;;5.10;;
25207;SDS011;13153;52.316;21.166;2023-08-31T04:26:39;13.13;;;8.55;;
25207;SDS011;13153;52.316;21.166;2023-08-31T04:29:05;10.88;;;6.60;;
25207;SDS011;13153;52.316;21.166;2023-08-31T04:31:33;7.15;;;5.05;;
25207;SDS011;13153;52.316;21.166;2023-08-31T04:33:59;4.97;;;3.80;;
25207;SDS011;13153;52.316;21.166;2023-08-31T04:36:25;4.32;;;3.88;;
25207;SDS011;13153;52.316;21.166;2023-08-31T04:38:51;5.60;;;4.38;;
25207;SDS011;13153;52.316;21.166;2023-08-31T04:41:17;5.68;;;4.25;;
25207;SDS011;13153;52.316;21.166;2023-08-31T04:43:43;4.55;;;4.15;;
25207;SDS011;13153;52.316;21.166;2023-08-31T04:46:12;5.03;;;4.15;;
25207;SDS011;13153;52.316;21.166;2023-08-31T04:48:38;4.75;;;3.90;;
25207;SDS011;13153;52.316;21.166;2023-08-31T04:51:04;9.38;;;3.63;;
25207;SDS011;13153;52.316;21.166;2023-08-31T04:53:30;4.30;;;3.00;;
25207;SDS011;13153;52.316;21.166;2023-08-31T04:55:56;7.20;;;2.90;;
25207;SDS011;13153;52.316;21.166;2023-08-31T04:58:23;5.32;;;2.40;;
25207;SDS011;13153;52.316;21.166;2023-08-31T05:00:51;5.72;;;3.05;;
25207;SDS011;13153;52.316;21.166;2023-08-31T05:03:17;5.45;;;2.80;;
25207;SDS011;13153;52.316;21.166;2023-08-31T05:05:42;4.57;;;2.70;;
25207;SDS011;13153;52.316;21.166;2023-08-31T05:08:09;3.20;;;2.65;;
25207;SDS011;13153;52.316;21.166;2023-08-31T05:10:34;4.68;;;2.63;;
25207;SDS011;13153;52.316;21.166;2023-08-31T05:13:00;3.45;;;2.53;;
25207;SDS011;13153;52.316;21.166;2023-08-31T05:15:27;3.60;;;2.20;;
25207;SDS011;13153;52.316;21.166;2023-08-31T05:17:53;2.50;;;2.20;;
25207;SDS011;13153;52.316;21.166;2023-08-31T05:20:19;4.28;;;2.20;;
25207;SDS011;13153;52.316;21.166;2023-08-31T05:22:47;3.53;;;2.13;;
25207;SDS011;13153;52.316;21.166;2023-08-31T05:25:13;2.75;;;2.10;;
25207;SDS011;13153;52.316;21.166;2023-08-31T05:27:39;4.03;;;1.98;;
25207;SDS011;13153;52.316;21.166;2023-08-31T05:30:05;1.92;;;1.73;;
25207;SDS011;13153;52.316;21.166;2023-08-31T05:32:31;2.25;;;1.88;;
25207;SDS011;13153;52.316;21.166;2023-08-31T05:34:57;3.83;;;1.85;;
25207;SDS011;13153;52.316;21.166;2023-08-31T05:37:24;1.83;;;1.48;;
25207;SDS011;13153;52.316;21.166;2023-08-31T05:39:50;2.33;;;1.65;;
25207;SDS011;13153;52.316;21.166;2023-08-31T05:42:16;1.90;;;1.60;;
25207;SDS011;13153;52.316;21.166;2023-08-31T05:44:43;3.65;;;1.48;;
25207;SDS011;13153;52.316;21.166;2023-08-31T05:47:09;3.30;;;1.58;;
25207;SDS011;13153;52.316;21.166;2023-08-31T05:49:35;1.60;;;1.50;;
25207;SDS011;13153;52.316;21.166;2023-08-31T05:52:01;2.58;;;2.00;;
25207;SDS011;13153;52.316;21.166;2023-08-31T05:54:27;4.15;;;2.22;;
25207;SDS011;13153;52.316;21.166;2023-08-31T05:56:52;2.85;;;2.10;;
25207;SDS011;13153;52.316;21.166;2023-08-31T05:59:18;3.38;;;1.80;;
25207;SDS011;13153;52.316;21.166;2023-08-31T06:01:44;4.43;;;1.90;;
25207;SDS011;13153;52.316;21.166;2023-08-31T06:04:11;2.75;;;1.83;;
25207;SDS011;13153;52.316;21.166;2023-08-31T06:06:36;4.28;;;1.90;;
25207;SDS011;13153;52.316;21.166;2023-08-31T06:09:02;3.85;;;2.03;;
25207;SDS011;13153;52.316;21.166;2023-08-31T06:11:29;3.67;;;2.08;;
25207;SDS011;13153;52.316;21.166;2023-08-31T06:13:55;2.85;;;2.00;;
25207;SDS011;13153;52.316;21.166;2023-08-31T06:16:21;2.58;;;1.70;;
25207;SDS011;13153;52.316;21.166;2023-08-31T06:18:49;3.88;;;1.88;;
25207;SDS011;13153;52.316;21.166;2023-08-31T06:21:14;2.58;;;2.00;;
25207;SDS011;13153;52.316;21.166;2023-08-31T06:23:40;2.55;;;1.75;;
25207;SDS011;13153;52.316;21.166;2023-08-31T06:26:06;2.65;;;2.00;;
25207;SDS011;13153;52.316;21.166;2023-08-31T06:28:32;3.45;;;1.80;;
25207;SDS011;13153;52.316;21.166;2023-08-31T06:30:57;6.57;;;2.33;;
25207;SDS011;13153;52.316;21.166;2023-08-31T06:33:23;4.15;;;2.63;;
25207;SDS011;13153;52.316;21.166;2023-08-31T06:35:49;4.53;;;2.35;;
25207;SDS011;13153;52.316;21.166;2023-08-31T06:38:16;6.18;;;2.17;;
25207;SDS011;13153;52.316;21.166;2023-08-31T06:40:46;3.85;;;2.17;;
25207;SDS011;13153;52.316;21.166;2023-08-31T06:43:12;4.72;;;2.15;;
25207;SDS011;13153;52.316;21.166;2023-08-31T06:45:38;8.25;;;3.28;;
25207;SDS011;13153;52.316;21.166;2023-08-31T06:48:04;13.18;;;4.60;;
25207;SDS011;13153;52.316;21.166;2023-08-31T06:50:30;7.22;;;3.60;;
25207;SDS011;13153;52.316;21.166;2023-08-31T06:52:55;7.78;;;3.92;;
25207;SDS011;13153;52.316;21.166;2023-08-31T06:55:21;7.47;;;3.75;;
25207;SDS011;13153;52.316;21.166;2023-08-31T06:57:47;7.18;;;4.00;;
25207;SDS011;13153;52.316;21.166;2023-08-31T07:00:13;7.30;;;3.78;;
25207;SDS011;13153;52.316;21.166;2023-08-31T07:02:39;8.73;;;3.50;;
25207;SDS011;13153;52.316;21.166;2023-08-31T07:05:06;5.68;;;3.47;;
25207;SDS011;13153;52.316;21.166;2023-08-31T07:07:33;5.07;;;3.17;;
25207;SDS011;13153;52.316;21.166;2023-08-31T07:09:59;3.25;;;2.58;;
25207;SDS011;13153;52.316;21.166;2023-08-31T07:12:25;4.13;;;2.03;;
25207;SDS011;13153;52.316;21.166;2023-08-31T07:14:51;4.07;;;2.38;;
25207;SDS011;13153;52.316;21.166;2023-08-31T07:17:19;2.70;;;2.28;;
25207;SDS011;13153;52.316;21.166;2023-08-31T07:19:46;3.75;;;2.20;;
25207;SDS011;13153;52.316;21.166;2023-08-31T07:22:11;2.80;;;2.15;;
25207;SDS011;13153;52.316;21.166;2023-08-31T07:24:37;5.43;;;2.00;;
25207;SDS011;13153;52.316;21.166;2023-08-31T07:27:03;3.53;;;2.10;;
25207;SDS011;13153;52.316;21.166;2023-08-31T07:29:30;4.05;;;1.95;;
25207;SDS011;13153;52.316;21.166;2023-08-31T07:31:56;6.07;;;2.08;;
25207;SDS011;13153;52.316;21.166;2023-08-31T07:34:22;6.80;;;2.22;;
25207;SDS011;13153;52.316;21.166;2023-08-31T07:36:49;4.95;;;2.20;;
25207;SDS011;13153;52.316;21.166;2023-08-31T07:39:15;5.38;;;2.70;;
25207;SDS011;13153;52.316;21.166;2023-08-31T07:41:42;3.25;;;2.10;;
25207;SDS011;13153;52.316;21.166;2023-08-31T07:44:09;3.20;;;2.20;;
25207;SDS011;13153;52.316;21.166;2023-08-31T07:46:35;2.72;;;2.10;;
25207;SDS011;13153;52.316;21.166;2023-08-31T07:49:01;3.55;;;2.10;;
25207;SDS011;13153;52.316;21.166;2023-08-31T07:51:28;4.00;;;3.17;;
25207;SDS011;13153;52.316;21.166;2023-08-31T07:53:53;4.40;;;2.88;;
25207;SDS011;13153;52.316;21.166;2023-08-31T07:56:19;3.15;;;2.53;;
25207;SDS011;13153;52.316;21.166;2023-08-31T07:58:45;3.80;;;2.00;;
25207;SDS011;13153;52.316;21.166;2023-08-31T08:01:10;3.97;;;2.10;;
25207;SDS011;13153;52.316;21.166;2023-08-31T08:03:36;4.75;;;2.20;;
25207;SDS011;13153;52.316;21.166;2023-08-31T08:06:02;5.78;;;2.58;;
25207;SDS011;13153;52.316;21.166;2023-08-31T08:08:28;4.90;;;2.35;;
25207;SDS011;13153;52.316;21.166;2023-08-31T08:10:54;9.85;;;3.60;;
25207;SDS011;13153;52.316;21.166;2023-08-31T08:13:20;4.75;;;2.80;;
25207;SDS011;13153;52.316;21.166;2023-08-31T08:15:46;2.97;;;2.20;;
25207;SDS011;13153;52.316;21.166;2023-08-31T08:18:12;5.13;;;2.17;;
25207;SDS011;13153;52.316;21.166;2023-08-31T08:20:38;3.53;;;1.75;;
25207;SDS011;13153;52.316;21.166;2023-08-31T08:23:05;3.22;;;1.60;;
25207;SDS011;13153;52.316;21.166;2023-08-31T08:25:31;2.25;;;1.70;;
25207;SDS011;13153;52.316;21.166;2023-08-31T08:27:58;5.80;;;1.70;;
25207;SDS011;13153;52.316;21.166;2023-08-31T08:30:23;3.28;;;1.67;;
25207;SDS011;13153;52.316;21.166;2023-08-31T08:32:49;4.00;;;1.73;;
25207;SDS011;13153;52.316;21.166;2023-08-31T08:35:15;2.63;;;1.63;;
25207;SDS011;13153;52.316;21.166;2023-08-31T08:37:41;2.33;;;1.45;;
25207;SDS011;13153;52.316;21.166;2023-08-31T08:40:06;2.92;;;1.85;;
25207;SDS011;13153;52.316;21.166;2023-08-31T08:42:37;3.17;;;1.60;;
25207;SDS011;13153;52.316;21.166;2023-08-31T08:45:07;3.90;;;1.80;;
25207;SDS011;13153;52.316;21.166;2023-08-31T08:47:44;2.92;;;1.75;;
25207;SDS011;13153;52.316;21.166;2023-08-31T08:50:11;6.00;;;1.80;;
25207;SDS011;13153;52.316;21.166;2023-08-31T08:52:41;4.45;;;1.58;;
25207;SDS011;13153;52.316;21.166;2023-08-31T08:55:08;2.63;;;1.83;;
25207;SDS011;13153;52.316;21.166;2023-08-31T08:57:35;4.80;;;2.15;;
25207;SDS011;13153;52.316;21.166;2023-08-31T09:00:01;5.13;;;1.80;;
25207;SDS011;13153;52.316;21.166;2023-08-31T09:02:28;2.95;;;2.20;;
25207;SDS011;13153;52.316;21.166;2023-08-31T09:04:54;3.45;;;2.30;;
25207;SDS011;13153;52.316;21.166;2023-08-31T09:07:21;2.63;;;1.50;;
25207;SDS011;13153;52.316;21.166;2023-08-31T09:09:53;3.00;;;1.58;;
25207;SDS011;13153;52.316;21.166;2023-08-31T09:12:23;3.28;;;1.67;;
25207;SDS011;13153;52.316;21.166;2023-08-31T09:15:03;2.03;;;1.52;;
25207;SDS011;13153;52.316;21.166;2023-08-31T09:17:39;1.77;;;1.40;;
25207;SDS011;13153;52.316;21.166;2023-08-31T09:20:09;2.55;;;1.40;;
25207;SDS011;13153;52.316;21.166;2023-08-31T09:22:35;2.33;;;1.42;;
25207;SDS011;13153;52.316;21.166;2023-08-31T09:25:01;1.65;;;1.20;;
25207;SDS011;13153;52.316;21.166;2023-08-31T09:27:29;1.65;;;1.30;;
25207;SDS011;13153;52.316;21.166;2023-08-31T09:29:56;1.83;;;1.38;;
25207;SDS011;13153;52.316;21.166;2023-08-31T09:32:22;1.65;;;1.30;;
25207;SDS011;13153;52.316;21.166;2023-08-31T09:34:48;2.65;;;1.35;;
25207;SDS011;13153;52.316;21.166;2023-08-31T09:37:17;1.83;;;1.40;;
25207;SDS011;13153;52.316;21.166;2023-08-31T09:39:43;2.03;;;1.48;;
25207;SDS011;13153;52.316;21.166;2023-08-31T09:42:10;2.55;;;1.40;;
25207;SDS011;13153;52.316;21.166;2023-08-31T09:44:39;2.10;;;1.20;;
25207;SDS011;13153;52.316;21.166;2023-08-31T09:47:08;3.42;;;1.50;;
25207;SDS011;13153;52.316;21.166;2023-08-31T09:49:34;3.35;;;1.80;;
25207;SDS011;13153;52.316;21.166;2023-08-31T09:52:03;2.33;;;1.50;;
25207;SDS011;13153;52.316;21.166;2023-08-31T09:54:31;3.13;;;1.55;;
25207;SDS011;13153;52.316;21.166;2023-08-31T09:57:00;3.13;;;1.60;;
25207;SDS011;13153;52.316;21.166;2023-08-31T09:59:30;1.90;;;1.50;;
25207;SDS011;13153;52.316;21.166;2023-08-31T10:01:56;1.83;;;1.50;;
25207;SDS011;13153;52.316;21.166;2023-08-31T10:04:23;1.77;;;1.60;;
25207;SDS011;13153;52.316;21.166;2023-08-31T10:06:50;3.10;;;1.48;;
25207;SDS011;13153;52.316;21.166;2023-08-31T10:09:17;3.38;;;1.55;;
25207;SDS011;13153;52.316;21.166;2023-08-31T10:11:44;1.50;;;1.40;;
25207;SDS011;13153;52.316;21.166;2023-08-31T10:14:11;3.33;;;1.85;;
25207;SDS011;13153;52.316;21.166;2023-08-31T10:16:42;3.17;;;1.80;;
25207;SDS011;13153;52.316;21.166;2023-08-31T10:19:10;3.47;;;2.20;;
25207;SDS011;13153;52.316;21.166;2023-08-31T10:21:35;4.28;;;2.60;;
25207;SDS011;13153;52.316;21.166;2023-08-31T10:24:02;2.80;;;1.92;;
25207;SDS011;13153;52.316;21.166;2023-08-31T10:26:30;3.00;;;1.70;;
25207;SDS011;13153;52.316;21.166;2023-08-31T10:28:57;2.47;;;2.00;;
25207;SDS011;13153;52.316;21.166;2023-08-31T10:31:27;2.65;;;1.60;;
25207;SDS011;13153;52.316;21.166;2023-08-31T10:34:04;2.13;;;1.60;;
25207;SDS011;13153;52.316;21.166;2023-08-31T10:36:41;4.38;;;1.40;;
25207;SDS011;13153;52.316;21.166;2023-08-31T10:39:14;2.38;;;1.80;;
25207;SDS011;13153;52.316;21.166;2023-08-31T10:41:53;2.85;;;1.52;;
25207;SDS011;13153;52.316;21.166;2023-08-31T10:46:48;2.90;;;1.63;;
25207;SDS011;13153;52.316;21.166;2023-08-31T10:49:19;2.47;;;1.80;;
25207;SDS011;13153;52.316;21.166;2023-08-31T10:54:39;2.28;;;1.75;;
25207;SDS011;13153;52.316;21.166;2023-08-31T10:57:05;4.43;;;2.60;;
25207;SDS011;13153;52.316;21.166;2023-08-31T10:59:42;3.22;;;1.80;;
25207;SDS011;13153;52.316;21.166;2023-08-31T11:02:26;3.03;;;1.85;;
25207;SDS011;13153;52.316;21.166;2023-08-31T11:05:10;3.15;;;1.50;;
25207;SDS011;13153;52.316;21.166;2023-08-31T11:07:40;3.72;;;1.85;;
25207;SDS011;13153;52.316;21.166;2023-08-31T11:13:00;4.60;;;2.33;;
25207;SDS011;13153;52.316;21.166;2023-08-31T11:15:26;2.65;;;2.00;;
25207;SDS011;13153;52.316;21.166;2023-08-31T11:17:55;3.88;;;1.90;;
25207;SDS011;13153;52.316;21.166;2023-08-31T11:20:21;3.92;;;1.80;;
25207;SDS011;13153;52.316;21.166;2023-08-31T11:22:52;3.13;;;1.92;;
25207;SDS011;13153;52.316;21.166;2023-08-31T11:25:19;2.75;;;2.15;;
25207;SDS011;13153;52.316;21.166;2023-08-31T11:27:55;2.22;;;1.70;;
25207;SDS011;13153;52.316;21.166;2023-08-31T11:30:27;2.03;;;1.80;;
25207;SDS011;13153;52.316;21.166;2023-08-31T11:33:02;4.53;;;1.92;;
25207;SDS011;13153;52.316;21.166;2023-08-31T11:35:36;2.28;;;1.90;;
25207;SDS011;13153;52.316;21.166;2023-08-31T11:38:06;2.00;;;1.67;;
25207;SDS011;13153;52.316;21.166;2023-08-31T11:40:32;6.22;;;1.92;;
25207;SDS011;13153;52.316;21.166;2023-08-31T11:42:58;2.70;;;2.15;;
25207;SDS011;13153;52.316;21.166;2023-08-31T11:45:33;2.10;;;1.90;;
25207;SDS011;13153;52.316;21.166;2023-08-31T11:48:03;2.25;;;2.05;;
25207;SDS011;13153;52.316;21.166;2023-08-31T11:50:31;2.50;;;1.95;;
25207;SDS011;13153;52.316;21.166;2023-08-31T11:52:57;3.30;;;2.30;;
25207;SDS011;13153;52.316;21.166;2023-08-31T11:55:23;2.72;;;2.10;;
25207;SDS011;13153;52.316;21.166;2023-08-31T11:57:51;2.47;;;1.90;;
25207;SDS011;13153;52.316;21.166;2023-08-31T12:00:20;3.40;;;2.17;;
25207;SDS011;13153;52.316;21.166;2023-08-31T12:02:57;2.28;;;2.00;;
25207;SDS011;13153;52.316;21.166;2023-08-31T12:05:23;3.25;;;2.40;;
25207;SDS011;13153;52.316;21.166;2023-08-31T12:07:50;3.13;;;2.13;;
25207;SDS011;13153;52.316;21.166;2023-08-31T12:10:19;2.10;;;1.90;;
25207;SDS011;13153;52.316;21.166;2023-08-31T12:12:45;6.68;;;2.17;;
25207;SDS011;13153;52.316;21.166;2023-08-31T12:15:11;2.42;;;2.10;;
25207;SDS011;13153;52.316;21.166;2023-08-31T12:17:37;2.70;;;2.20;;
25207;SDS011;13153;52.316;21.166;2023-08-31T12:20:08;2.45;;;1.90;;
25207;SDS011;13153;52.316;21.166;2023-08-31T12:22:35;3.92;;;2.03;;
25207;SDS011;13153;52.316;21.166;2023-08-31T12:25:00;2.75;;;2.13;;
25207;SDS011;13153;52.316;21.166;2023-08-31T12:27:26;2.95;;;2.30;;
25207;SDS011;13153;52.316;21.166;2023-08-31T12:29:52;2.50;;;2.20;;
25207;SDS011;13153;52.316;21.166;2023-08-31T12:32:18;2.92;;;2.40;;
25207;SDS011;13153;52.316;21.166;2023-08-31T12:34:44;2.92;;;1.90;;
25207;SDS011;13153;52.316;21.166;2023-08-31T12:37:10;2.63;;;2.42;;
25207;SDS011;13153;52.316;21.166;2023-08-31T12:39:36;2.45;;;2.00;;
25207;SDS011;13153;52.316;21.166;2023-08-31T12:42:02;4.43;;;2.40;;
25207;SDS011;13153;52.316;21.166;2023-08-31T12:44:29;2.60;;;2.28;;
25207;SDS011;13153;52.316;21.166;2023-08-31T12:46:56;3.13;;;2.10;;
25207;SDS011;13153;52.316;21.166;2023-08-31T12:49:21;3.03;;;2.25;;
25207;SDS011;13153;52.316;21.166;2023-08-31T12:51:48;2.40;;;2.20;;
25207;SDS011;13153;52.316;21.166;2023-08-31T12:54:15;2.97;;;2.20;;
25207;SDS011;13153;52.316;21.166;2023-08-31T12:56:41;2.65;;;2.10;;
25207;SDS011;13153;52.316;21.166;2023-08-31T12:59:07;2.78;;;2.28;;
25207;SDS011;13153;52.316;21.166;2023-08-31T13:01:33;5.07;;;2.42;;
25207;SDS011;13153;52.316;21.166;2023-08-31T13:03:58;2.40;;;2.20;;
25207;SDS011;13153;52.316;21.166;2023-08-31T13:06:27;3.95;;;2.35;;
25207;SDS011;13153;52.316;21.166;2023-08-31T13:08:53;2.30;;;2.08;;
25207;SDS011;13153;52.316;21.166;2023-08-31T13:11:19;4.90;;;3.10;;
25207;SDS011;13153;52.316;21.166;2023-08-31T13:13:48;3.10;;;2.40;;
25207;SDS011;13153;52.316;21.166;2023-08-31T13:16:17;3.42;;;2.20;;
25207;SDS011;13153;52.316;21.166;2023-08-31T13:18:44;3.97;;;2.30;;
25207;SDS011;13153;52.316;21.166;2023-08-31T13:21:09;3.97;;;2.28;;
25207;SDS011;13153;52.316;21.166;2023-08-31T13:23:35;2.63;;;2.13;;
25207;SDS011;13153;52.316;21.166;2023-08-31T13:26:01;3.35;;;2.20;;
25207;SDS011;13153;52.316;21.166;2023-08-31T13:28:27;3.95;;;2.08;;
25207;SDS011;13153;52.316;21.166;2023-08-31T13:30:56;3.63;;;2.58;;
25207;SDS011;13153;52.316;21.166;2023-08-31T13:33:25;4.78;;;2.40;;
25207;SDS011;13153;52.316;21.166;2023-08-31T13:35:58;2.85;;;2.45;;
25207;SDS011;13153;52.316;21.166;2023-08-31T13:38:24;3.33;;;2.17;;
25207;SDS011;13153;52.316;21.166;2023-08-31T13:40:56;3.60;;;2.50;;
25207;SDS011;13153;52.316;21.166;2023-08-31T13:43:22;2.78;;;2.42;;
25207;SDS011;13153;52.316;21.166;2023-08-31T13:45:49;2.92;;;2.40;;
25207;SDS011;13153;52.316;21.166;2023-08-31T13:48:15;3.15;;;2.20;;
25207;SDS011;13153;52.316;21.166;2023-08-31T13:50:41;5.40;;;2.67;;
25207;SDS011;13153;52.316;21.166;2023-08-31T13:53:07;4.45;;;2.90;;
25207;SDS011;13153;52.316;21.166;2023-08-31T13:55:33;4.03;;;2.60;;
25207;SDS011;13153;52.316;21.166;2023-08-31T13:58:03;3.67;;;2.30;;
25207;SDS011;13153;52.316;21.166;2023-08-31T14:00:34;5.22;;;2.65;;
25207;SDS011;13153;52.316;21.166;2023-08-31T14:03:01;2.78;;;2.38;;
25207;SDS011;13153;52.316;21.166;2023-08-31T14:05:30;6.65;;;2.55;;
25207;SDS011;13153;52.316;21.166;2023-08-31T14:07:56;3.22;;;2.47;;
25207;SDS011;13153;52.316;21.166;2023-08-31T14:10:23;2.42;;;2.22;;
25207;SDS011;13153;52.316;21.166;2023-08-31T14:12:50;4.03;;;2.20;;
25207;SDS011;13153;52.316;21.166;2023-08-31T14:15:16;2.42;;;2.22;;
25207;SDS011;13153;52.316;21.166;2023-08-31T14:17:41;4.00;;;2.35;;
25207;SDS011;13153;52.316;21.166;2023-08-31T14:20:07;10.90;;;2.55;;
25207;SDS011;13153;52.316;21.166;2023-08-31T14:22:35;8.93;;;2.80;;
25207;SDS011;13153;52.316;21.166;2023-08-31T14:25:01;8.98;;;4.30;;
25207;SDS011;13153;52.316;21.166;2023-08-31T14:27:28;13.57;;;7.03;;
25207;SDS011;13153;52.316;21.166;2023-08-31T14:29:58;9.45;;;3.95;;
25207;SDS011;13153;52.316;21.166;2023-08-31T14:32:25;7.22;;;2.67;;
25207;SDS011;13153;52.316;21.166;2023-08-31T14:34:51;7.45;;;2.45;;
25207;SDS011;13153;52.316;21.166;2023-08-31T14:37:20;6.22;;;2.50;;
25207;SDS011;13153;52.316;21.166;2023-08-31T14:39:46;4.75;;;2.40;;
25207;SDS011;13153;52.316;21.166;2023-08-31T14:42:12;3.38;;;2.03;;
25207;SDS011;13153;52.316;21.166;2023-08-31T14:44:38;6.50;;;2.72;;
25207;SDS011;13153;52.316;21.166;2023-08-31T14:47:03;3.50;;;2.40;;
25207;SDS011;13153;52.316;21.166;2023-08-31T14:49:29;4.25;;;2.40;;
25207;SDS011;13153;52.316;21.166;2023-08-31T14:51:55;5.32;;;2.40;;
25207;SDS011;13153;52.316;21.166;2023-08-31T14:54:21;3.95;;;2.67;;
25207;SDS011;13153;52.316;21.166;2023-08-31T14:56:47;4.22;;;2.80;;